sensor_id;sensor_type;location;lat;lon;timestamp;P1;durP1;ratioP1;P2;durP2;ratioP2
31808;SDS011;18379;48.208;-1.518;2023-02-28T00:11:11;32.30;;;29.90;;
31808;SDS011;18379;48.208;-1.518;2023-02-28T00:16:15;32.53;;;30.10;;
31808;SDS011;18379;48.208;-1.518;2023-02-28T00:21:20;52.43;;;46.73;;
31808;SDS011;18379;48.208;-1.518;2023-02-28T00:26:21;50.57;;;45.20;;
31808;SDS011;18379;48.208;-1.518;2023-02-28T00:31:21;53.67;;;47.17;;
31808;SDS011;18379;48.208;-1.518;2023-02-28T00:36:22;52.37;;;46.83;;
31808;SDS011;18379;48.208;-1.518;2023-02-28T00:41:23;52.77;;;46.70;;
31808;SDS011;18379;48.208;-1.518;2023-02-28T00:46:24;36.30;;;33.13;;
31808;SDS011;18379;48.208;-1.518;2023-02-28T00:51:25;36.67;;;33.43;;
31808;SDS011;18379;48.208;-1.518;2023-02-28T00:56:26;38.40;;;34.73;;
31808;SDS011;18379;48.208;-1.518;2023-02-28T01:01:26;38.77;;;35.00;;
31808;SDS011;18379;48.208;-1.518;2023-02-28T01:06:27;35.40;;;32.47;;
31808;SDS011;18379;48.208;-1.518;2023-02-28T01:11:28;38.60;;;34.80;;
31808;SDS011;18379;48.208;-1.518;2023-02-28T01:16:29;36.13;;;32.33;;
31808;SDS011;18379;48.208;-1.518;2023-02-28T01:21:30;34.77;;;31.43;;
31808;SDS011;18379;48.208;-1.518;2023-02-28T01:26:31;33.23;;;30.30;;
31808;SDS011;18379;48.208;-1.518;2023-02-28T01:31:32;34.33;;;31.27;;
31808;SDS011;18379;48.208;-1.518;2023-02-28T01:36:33;36.77;;;33.27;;
31808;SDS011;18379;48.208;-1.518;2023-02-28T01:41:34;38.83;;;34.73;;
31808;SDS011;18379;48.208;-1.518;2023-02-28T01:46:35;34.73;;;31.47;;
31808;SDS011;18379;48.208;-1.518;2023-02-28T01:51:41;35.77;;;32.10;;
31808;SDS011;18379;48.208;-1.518;2023-02-28T01:56:55;40.87;;;34.03;;
31808;SDS011;18379;48.208;-1.518;2023-02-28T02:02:01;39.53;;;34.00;;
31808;SDS011;18379;48.208;-1.518;2023-02-28T02:07:02;35.13;;;31.73;;
31808;SDS011;18379;48.208;-1.518;2023-02-28T02:12:07;36.87;;;33.40;;
31808;SDS011;18379;48.208;-1.518;2023-02-28T02:17:26;39.00;;;35.07;;
31808;SDS011;18379;48.208;-1.518;2023-02-28T02:43:41;33.33;;;30.60;;
31808;SDS011;18379;48.208;-1.518;2023-02-28T02:48:47;31.97;;;29.50;;
31808;SDS011;18379;48.208;-1.518;2023-02-28T02:53:57;41.20;;;37.07;;
31808;SDS011;18379;48.208;-1.518;2023-02-28T02:59:07;35.80;;;32.83;;
31808;SDS011;18379;48.208;-1.518;2023-02-28T03:04:18;30.67;;;28.47;;
31808;SDS011;18379;48.208;-1.518;2023-02-28T03:09:22;35.73;;;32.30;;
31808;SDS011;18379;48.208;-1.518;2023-02-28T03:14:30;46.00;;;41.10;;
31808;SDS011;18379;48.208;-1.518;2023-02-28T03:25:20;32.30;;;29.73;;
31808;SDS011;18379;48.208;-1.518;2023-02-28T03:31:21;30.13;;;28.03;;
31808;SDS011;18379;48.208;-1.518;2023-02-28T03:36:18;30.47;;;28.17;;
31808;SDS011;18379;48.208;-1.518;2023-02-28T03:41:27;34.30;;;31.37;;
31808;SDS011;18379;48.208;-1.518;2023-02-28T03:46:37;28.87;;;26.43;;
31808;SDS011;18379;48.208;-1.518;2023-02-28T03:51:41;29.83;;;27.53;;
31808;SDS011;18379;48.208;-1.518;2023-02-28T03:56:51;32.13;;;29.37;;
31808;SDS011;18379;48.208;-1.518;2023-02-28T04:02:01;35.93;;;32.23;;
31808;SDS011;18379;48.208;-1.518;2023-02-28T04:07:04;34.73;;;31.57;;
31808;SDS011;18379;48.208;-1.518;2023-02-28T04:12:08;30.10;;;27.57;;
31808;SDS011;18379;48.208;-1.518;2023-02-28T04:17:09;30.60;;;28.10;;
31808;SDS011;18379;48.208;-1.518;2023-02-28T04:22:10;31.10;;;28.57;;
31808;SDS011;18379;48.208;-1.518;2023-02-28T04:27:11;31.40;;;28.70;;
31808;SDS011;18379;48.208;-1.518;2023-02-28T04:32:12;29.97;;;27.37;;
31808;SDS011;18379;48.208;-1.518;2023-02-28T04:37:13;30.60;;;28.10;;
31808;SDS011;18379;48.208;-1.518;2023-02-28T04:42:14;30.33;;;27.87;;
31808;SDS011;18379;48.208;-1.518;2023-02-28T04:47:15;30.47;;;28.07;;
31808;SDS011;18379;48.208;-1.518;2023-02-28T04:52:16;31.60;;;28.80;;
31808;SDS011;18379;48.208;-1.518;2023-02-28T04:57:17;31.33;;;28.60;;
31808;SDS011;18379;48.208;-1.518;2023-02-28T05:02:18;31.67;;;28.87;;
31808;SDS011;18379;48.208;-1.518;2023-02-28T05:07:21;34.23;;;30.80;;
31808;SDS011;18379;48.208;-1.518;2023-02-28T05:12:22;36.07;;;32.43;;
31808;SDS011;18379;48.208;-1.518;2023-02-28T05:17:22;35.00;;;31.30;;
31808;SDS011;18379;48.208;-1.518;2023-02-28T05:22:23;34.70;;;31.07;;
31808;SDS011;18379;48.208;-1.518;2023-02-28T05:27:24;35.77;;;32.10;;
31808;SDS011;18379;48.208;-1.518;2023-02-28T05:32:25;42.70;;;35.10;;
31808;SDS011;18379;48.208;-1.518;2023-02-28T05:37:25;46.20;;;36.77;;
31808;SDS011;18379;48.208;-1.518;2023-02-28T05:42:26;37.33;;;33.40;;
31808;SDS011;18379;48.208;-1.518;2023-02-28T05:47:27;50.83;;;36.47;;
31808;SDS011;18379;48.208;-1.518;2023-02-28T05:52:28;43.17;;;35.33;;
31808;SDS011;18379;48.208;-1.518;2023-02-28T05:57:30;46.20;;;36.00;;
31808;SDS011;18379;48.208;-1.518;2023-02-28T06:02:30;42.73;;;37.30;;
31808;SDS011;18379;48.208;-1.518;2023-02-28T06:07:31;34.80;;;31.13;;
31808;SDS011;18379;48.208;-1.518;2023-02-28T06:12:32;38.70;;;32.00;;
31808;SDS011;18379;48.208;-1.518;2023-02-28T06:17:33;54.00;;;37.60;;
31808;SDS011;18379;48.208;-1.518;2023-02-28T06:22:35;59.63;;;38.03;;
31808;SDS011;18379;48.208;-1.518;2023-02-28T06:27:36;53.87;;;40.13;;
31808;SDS011;18379;48.208;-1.518;2023-02-28T06:32:38;41.13;;;35.53;;
31808;SDS011;18379;48.208;-1.518;2023-02-28T06:37:40;31.20;;;28.20;;
31808;SDS011;18379;48.208;-1.518;2023-02-28T06:42:42;33.10;;;29.60;;
31808;SDS011;18379;48.208;-1.518;2023-02-28T06:47:43;33.10;;;30.13;;
31808;SDS011;18379;48.208;-1.518;2023-02-28T06:52:43;33.40;;;30.13;;
31808;SDS011;18379;48.208;-1.518;2023-02-28T06:57:47;33.60;;;30.33;;
31808;SDS011;18379;48.208;-1.518;2023-02-28T07:02:50;41.07;;;35.07;;
31808;SDS011;18379;48.208;-1.518;2023-02-28T07:07:51;66.50;;;41.23;;
31808;SDS011;18379;48.208;-1.518;2023-02-28T07:12:53;36.53;;;32.73;;
31808;SDS011;18379;48.208;-1.518;2023-02-28T07:17:53;44.80;;;37.30;;
31808;SDS011;18379;48.208;-1.518;2023-02-28T07:22:54;40.73;;;35.17;;
31808;SDS011;18379;48.208;-1.518;2023-02-28T07:27:56;50.53;;;38.13;;
31808;SDS011;18379;48.208;-1.518;2023-02-28T07:32:59;37.37;;;33.43;;
31808;SDS011;18379;48.208;-1.518;2023-02-28T07:38:00;35.57;;;31.77;;
31808;SDS011;18379;48.208;-1.518;2023-02-28T07:43:01;43.53;;;34.87;;
31808;SDS011;18379;48.208;-1.518;2023-02-28T07:48:03;50.57;;;37.50;;
31808;SDS011;18379;48.208;-1.518;2023-02-28T07:53:04;38.70;;;34.33;;
31808;SDS011;18379;48.208;-1.518;2023-02-28T07:58:05;58.73;;;46.77;;
31808;SDS011;18379;48.208;-1.518;2023-02-28T08:03:05;49.93;;;43.37;;
31808;SDS011;18379;48.208;-1.518;2023-02-28T08:08:07;39.77;;;36.07;;
31808;SDS011;18379;48.208;-1.518;2023-02-28T08:13:08;36.77;;;33.23;;
31808;SDS011;18379;48.208;-1.518;2023-02-28T08:18:09;37.90;;;33.97;;
31808;SDS011;18379;48.208;-1.518;2023-02-28T08:23:10;39.07;;;35.20;;
31808;SDS011;18379;48.208;-1.518;2023-02-28T08:28:10;50.27;;;40.00;;
31808;SDS011;18379;48.208;-1.518;2023-02-28T08:33:11;40.70;;;36.30;;
31808;SDS011;18379;48.208;-1.518;2023-02-28T08:38:12;62.63;;;43.77;;
31808;SDS011;18379;48.208;-1.518;2023-02-28T08:43:13;42.03;;;37.43;;
31808;SDS011;18379;48.208;-1.518;2023-02-28T08:48:14;38.63;;;35.00;;
31808;SDS011;18379;48.208;-1.518;2023-02-28T08:53:15;42.20;;;37.87;;
31808;SDS011;18379;48.208;-1.518;2023-02-28T08:58:15;42.40;;;38.13;;
31808;SDS011;18379;48.208;-1.518;2023-02-28T09:03:19;48.77;;;42.90;;
31808;SDS011;18379;48.208;-1.518;2023-02-28T09:08:21;57.90;;;49.70;;
31808;SDS011;18379;48.208;-1.518;2023-02-28T09:13:24;61.67;;;51.47;;
31808;SDS011;18379;48.208;-1.518;2023-02-28T09:18:25;63.60;;;53.57;;
31808;SDS011;18379;48.208;-1.518;2023-02-28T09:23:27;59.07;;;52.10;;
31808;SDS011;18379;48.208;-1.518;2023-02-28T09:28:27;60.63;;;53.27;;
31808;SDS011;18379;48.208;-1.518;2023-02-28T09:33:28;64.20;;;54.53;;
31808;SDS011;18379;48.208;-1.518;2023-02-28T09:38:29;61.27;;;53.97;;
31808;SDS011;18379;48.208;-1.518;2023-02-28T09:43:34;59.93;;;53.60;;
31808;SDS011;18379;48.208;-1.518;2023-02-28T09:48:39;44.10;;;39.77;;
31808;SDS011;18379;48.208;-1.518;2023-02-28T09:53:43;41.17;;;38.03;;
31808;SDS011;18379;48.208;-1.518;2023-02-28T09:58:46;41.33;;;38.10;;
31808;SDS011;18379;48.208;-1.518;2023-02-28T10:03:57;44.70;;;40.83;;
31808;SDS011;18379;48.208;-1.518;2023-02-28T10:09:04;47.67;;;43.27;;
31808;SDS011;18379;48.208;-1.518;2023-02-28T10:14:21;39.33;;;36.60;;
31808;SDS011;18379;48.208;-1.518;2023-02-28T10:24:36;43.07;;;39.97;;
31808;SDS011;18379;48.208;-1.518;2023-02-28T10:30:01;42.80;;;39.50;;
31808;SDS011;18379;48.208;-1.518;2023-02-28T10:45:17;41.80;;;38.73;;
31808;SDS011;18379;48.208;-1.518;2023-02-28T11:01:15;40.90;;;38.40;;
31808;SDS011;18379;48.208;-1.518;2023-02-28T11:06:35;61.10;;;55.30;;
31808;SDS011;18379;48.208;-1.518;2023-02-28T11:11:43;56.63;;;51.60;;
31808;SDS011;18379;48.208;-1.518;2023-02-28T11:16:46;39.27;;;37.07;;
31808;SDS011;18379;48.208;-1.518;2023-02-28T11:21:52;40.23;;;37.97;;
31808;SDS011;18379;48.208;-1.518;2023-02-28T11:26:58;58.60;;;53.30;;
31808;SDS011;18379;48.208;-1.518;2023-02-28T11:32:07;57.23;;;52.27;;
31808;SDS011;18379;48.208;-1.518;2023-02-28T11:37:17;41.30;;;38.80;;
31808;SDS011;18379;48.208;-1.518;2023-02-28T11:47:38;46.77;;;43.43;;
31808;SDS011;18379;48.208;-1.518;2023-02-28T11:52:54;42.80;;;40.10;;
31808;SDS011;18379;48.208;-1.518;2023-02-28T12:13:56;49.83;;;46.40;;
31808;SDS011;18379;48.208;-1.518;2023-02-28T12:19:22;49.77;;;45.93;;
31808;SDS011;18379;48.208;-1.518;2023-02-28T12:24:44;48.27;;;44.70;;
31808;SDS011;18379;48.208;-1.518;2023-02-28T12:29:50;43.60;;;41.07;;
31808;SDS011;18379;48.208;-1.518;2023-02-28T12:40:11;49.00;;;45.60;;
31808;SDS011;18379;48.208;-1.518;2023-02-28T12:45:22;45.47;;;42.13;;
31808;SDS011;18379;48.208;-1.518;2023-02-28T12:50:25;48.97;;;45.57;;
31808;SDS011;18379;48.208;-1.518;2023-02-28T13:00:46;45.93;;;43.13;;
31808;SDS011;18379;48.208;-1.518;2023-02-28T13:06:23;50.40;;;47.00;;
31808;SDS011;18379;48.208;-1.518;2023-02-28T13:11:31;52.93;;;49.07;;
31808;SDS011;18379;48.208;-1.518;2023-02-28T13:27:38;62.90;;;57.53;;
31808;SDS011;18379;48.208;-1.518;2023-02-28T13:32:40;44.93;;;42.23;;
31808;SDS011;18379;48.208;-1.518;2023-02-28T13:37:42;45.43;;;42.63;;
31808;SDS011;18379;48.208;-1.518;2023-02-28T13:47:48;44.57;;;41.80;;
31808;SDS011;18379;48.208;-1.518;2023-02-28T14:09:32;42.50;;;39.97;;
31808;SDS011;18379;48.208;-1.518;2023-02-28T14:15:04;45.37;;;42.33;;
31808;SDS011;18379;48.208;-1.518;2023-02-28T14:19:46;42.00;;;39.50;;
31808;SDS011;18379;48.208;-1.518;2023-02-28T14:24:59;43.83;;;40.93;;
31808;SDS011;18379;48.208;-1.518;2023-02-28T14:30:17;47.77;;;44.13;;
31808;SDS011;18379;48.208;-1.518;2023-02-28T14:35:43;43.70;;;40.80;;
31808;SDS011;18379;48.208;-1.518;2023-02-28T14:41:06;45.47;;;42.33;;
31808;SDS011;18379;48.208;-1.518;2023-02-28T14:46:16;42.57;;;39.83;;
31808;SDS011;18379;48.208;-1.518;2023-02-28T14:51:19;44.83;;;41.63;;
31808;SDS011;18379;48.208;-1.518;2023-02-28T14:56:27;53.93;;;49.50;;
31808;SDS011;18379;48.208;-1.518;2023-02-28T15:01:37;53.07;;;48.77;;
31808;SDS011;18379;48.208;-1.518;2023-02-28T15:06:37;51.40;;;46.97;;
31808;SDS011;18379;48.208;-1.518;2023-02-28T15:11:38;47.77;;;44.40;;
31808;SDS011;18379;48.208;-1.518;2023-02-28T15:16:41;44.57;;;41.47;;
31808;SDS011;18379;48.208;-1.518;2023-02-28T15:21:45;48.50;;;44.63;;
31808;SDS011;18379;48.208;-1.518;2023-02-28T15:26:51;49.57;;;45.17;;
31808;SDS011;18379;48.208;-1.518;2023-02-28T15:36:57;61.33;;;55.47;;
31808;SDS011;18379;48.208;-1.518;2023-02-28T15:42:11;67.97;;;61.07;;
31808;SDS011;18379;48.208;-1.518;2023-02-28T15:47:22;57.33;;;49.57;;
31808;SDS011;18379;48.208;-1.518;2023-02-28T15:52:41;118.23;;;63.70;;
31808;SDS011;18379;48.208;-1.518;2023-02-28T15:57:44;49.83;;;44.37;;
31808;SDS011;18379;48.208;-1.518;2023-02-28T16:02:46;73.60;;;54.77;;
31808;SDS011;18379;48.208;-1.518;2023-02-28T16:07:47;55.90;;;50.13;;
31808;SDS011;18379;48.208;-1.518;2023-02-28T16:12:49;48.93;;;44.57;;
31808;SDS011;18379;48.208;-1.518;2023-02-28T16:17:49;52.57;;;47.47;;
31808;SDS011;18379;48.208;-1.518;2023-02-28T16:22:50;56.97;;;51.17;;
31808;SDS011;18379;48.208;-1.518;2023-02-28T16:27:52;53.20;;;48.17;;
31808;SDS011;18379;48.208;-1.518;2023-02-28T16:32:54;52.10;;;47.33;;
31808;SDS011;18379;48.208;-1.518;2023-02-28T16:37:56;55.00;;;49.03;;
31808;SDS011;18379;48.208;-1.518;2023-02-28T16:42:57;61.57;;;54.37;;
31808;SDS011;18379;48.208;-1.518;2023-02-28T16:48:00;58.33;;;52.20;;
31808;SDS011;18379;48.208;-1.518;2023-02-28T16:53:00;69.60;;;59.87;;
31808;SDS011;18379;48.208;-1.518;2023-02-28T16:58:02;85.03;;;61.70;;
31808;SDS011;18379;48.208;-1.518;2023-02-28T17:03:03;72.00;;;63.63;;
31808;SDS011;18379;48.208;-1.518;2023-02-28T17:08:04;76.73;;;66.17;;
31808;SDS011;18379;48.208;-1.518;2023-02-28T17:13:05;128.03;;;81.13;;
31808;SDS011;18379;48.208;-1.518;2023-02-28T17:18:08;87.70;;;65.63;;
31808;SDS011;18379;48.208;-1.518;2023-02-28T17:23:14;54.13;;;48.77;;
31808;SDS011;18379;48.208;-1.518;2023-02-28T17:28:18;90.03;;;63.63;;
31808;SDS011;18379;48.208;-1.518;2023-02-28T17:33:25;76.43;;;63.63;;
31808;SDS011;18379;48.208;-1.518;2023-02-28T17:38:26;85.13;;;71.60;;
31808;SDS011;18379;48.208;-1.518;2023-02-28T17:43:26;139.30;;;96.43;;
31808;SDS011;18379;48.208;-1.518;2023-02-28T17:48:28;67.53;;;58.10;;
31808;SDS011;18379;48.208;-1.518;2023-02-28T17:53:30;57.10;;;51.20;;
31808;SDS011;18379;48.208;-1.518;2023-02-28T17:58:31;56.47;;;50.67;;
31808;SDS011;18379;48.208;-1.518;2023-02-28T18:03:31;54.57;;;49.27;;
31808;SDS011;18379;48.208;-1.518;2023-02-28T18:08:32;65.37;;;54.43;;
31808;SDS011;18379;48.208;-1.518;2023-02-28T18:13:35;55.47;;;49.77;;
31808;SDS011;18379;48.208;-1.518;2023-02-28T18:18:36;55.23;;;49.63;;
31808;SDS011;18379;48.208;-1.518;2023-02-28T18:23:37;77.73;;;62.73;;
31808;SDS011;18379;48.208;-1.518;2023-02-28T18:28:46;57.93;;;51.83;;
31808;SDS011;18379;48.208;-1.518;2023-02-28T18:33:48;58.10;;;51.93;;
31808;SDS011;18379;48.208;-1.518;2023-02-28T18:38:50;64.80;;;55.50;;
31808;SDS011;18379;48.208;-1.518;2023-02-28T18:43:51;67.27;;;57.67;;
31808;SDS011;18379;48.208;-1.518;2023-02-28T18:48:53;57.87;;;51.67;;
31808;SDS011;18379;48.208;-1.518;2023-02-28T18:53:54;63.40;;;53.73;;
31808;SDS011;18379;48.208;-1.518;2023-02-28T18:58:55;62.73;;;52.87;;
31808;SDS011;18379;48.208;-1.518;2023-02-28T19:03:57;65.90;;;54.23;;
31808;SDS011;18379;48.208;-1.518;2023-02-28T19:09:02;70.93;;;55.27;;
31808;SDS011;18379;48.208;-1.518;2023-02-28T19:14:03;56.30;;;49.33;;
31808;SDS011;18379;48.208;-1.518;2023-02-28T19:19:04;61.27;;;52.97;;
31808;SDS011;18379;48.208;-1.518;2023-02-28T19:24:07;52.53;;;47.10;;
31808;SDS011;18379;48.208;-1.518;2023-02-28T19:29:08;53.70;;;45.03;;
31808;SDS011;18379;48.208;-1.518;2023-02-28T19:34:09;48.70;;;43.83;;
31808;SDS011;18379;48.208;-1.518;2023-02-28T19:39:09;45.07;;;40.77;;
31808;SDS011;18379;48.208;-1.518;2023-02-28T19:44:11;49.47;;;44.87;;
31808;SDS011;18379;48.208;-1.518;2023-02-28T19:49:12;48.10;;;43.07;;
31808;SDS011;18379;48.208;-1.518;2023-02-28T19:54:12;43.00;;;39.40;;
31808;SDS011;18379;48.208;-1.518;2023-02-28T19:59:13;41.40;;;37.97;;
31808;SDS011;18379;48.208;-1.518;2023-02-28T20:04:17;39.27;;;36.20;;
31808;SDS011;18379;48.208;-1.518;2023-02-28T20:09:19;46.13;;;41.80;;
31808;SDS011;18379;48.208;-1.518;2023-02-28T20:14:21;46.77;;;42.13;;
31808;SDS011;18379;48.208;-1.518;2023-02-28T20:19:22;53.03;;;47.40;;
31808;SDS011;18379;48.208;-1.518;2023-02-28T20:24:23;46.40;;;41.83;;
31808;SDS011;18379;48.208;-1.518;2023-02-28T20:29:25;46.17;;;41.57;;
31808;SDS011;18379;48.208;-1.518;2023-02-28T20:34:25;38.70;;;35.57;;
31808;SDS011;18379;48.208;-1.518;2023-02-28T20:39:26;41.50;;;37.90;;
31808;SDS011;18379;48.208;-1.518;2023-02-28T20:44:27;40.03;;;36.73;;
31808;SDS011;18379;48.208;-1.518;2023-02-28T20:49:28;39.60;;;36.20;;
31808;SDS011;18379;48.208;-1.518;2023-02-28T20:54:29;42.13;;;38.33;;
31808;SDS011;18379;48.208;-1.518;2023-02-28T20:59:30;42.70;;;38.43;;
31808;SDS011;18379;48.208;-1.518;2023-02-28T21:04:31;41.30;;;37.67;;
31808;SDS011;18379;48.208;-1.518;2023-02-28T21:09:32;46.80;;;41.87;;
31808;SDS011;18379;48.208;-1.518;2023-02-28T21:14:32;60.40;;;50.47;;
31808;SDS011;18379;48.208;-1.518;2023-02-28T21:19:34;47.53;;;42.53;;
31808;SDS011;18379;48.208;-1.518;2023-02-28T21:24:35;51.67;;;46.20;;
31808;SDS011;18379;48.208;-1.518;2023-02-28T21:29:35;51.73;;;46.17;;
31808;SDS011;18379;48.208;-1.518;2023-02-28T21:34:36;44.37;;;39.87;;
31808;SDS011;18379;48.208;-1.518;2023-02-28T21:39:37;51.10;;;45.40;;
31808;SDS011;18379;48.208;-1.518;2023-02-28T21:44:38;58.63;;;50.10;;
31808;SDS011;18379;48.208;-1.518;2023-02-28T21:49:38;53.70;;;44.30;;
31808;SDS011;18379;48.208;-1.518;2023-02-28T21:54:39;55.63;;;46.00;;
31808;SDS011;18379;48.208;-1.518;2023-02-28T21:59:43;51.43;;;42.90;;
31808;SDS011;18379;48.208;-1.518;2023-02-28T22:04:44;56.40;;;47.03;;
31808;SDS011;18379;48.208;-1.518;2023-02-28T22:09:44;50.80;;;43.73;;
31808;SDS011;18379;48.208;-1.518;2023-02-28T22:14:45;51.83;;;43.83;;
31808;SDS011;18379;48.208;-1.518;2023-02-28T22:19:46;54.77;;;42.73;;
31808;SDS011;18379;48.208;-1.518;2023-02-28T22:24:48;48.37;;;42.63;;
31808;SDS011;18379;48.208;-1.518;2023-02-28T22:29:48;48.13;;;41.80;;
31808;SDS011;18379;48.208;-1.518;2023-02-28T22:34:50;47.07;;;41.80;;
31808;SDS011;18379;48.208;-1.518;2023-02-28T22:39:51;47.47;;;42.23;;
31808;SDS011;18379;48.208;-1.518;2023-02-28T22:44:52;49.73;;;42.30;;
31808;SDS011;18379;48.208;-1.518;2023-02-28T22:49:54;46.47;;;41.43;;
31808;SDS011;18379;48.208;-1.518;2023-02-28T22:54:54;50.73;;;42.97;;
31808;SDS011;18379;48.208;-1.518;2023-02-28T22:59:55;51.23;;;43.03;;
31808;SDS011;18379;48.208;-1.518;2023-02-28T23:04:56;49.10;;;41.57;;
31808;SDS011;18379;48.208;-1.518;2023-02-28T23:09:57;43.50;;;38.53;;
31808;SDS011;18379;48.208;-1.518;2023-02-28T23:14:58;53.47;;;43.67;;
31808;SDS011;18379;48.208;-1.518;2023-02-28T23:19:59;54.60;;;44.10;;
31808;SDS011;18379;48.208;-1.518;2023-02-28T23:25:00;49.47;;;42.23;;
31808;SDS011;18379;48.208;-1.518;2023-02-28T23:30:02;52.87;;;41.57;;
31808;SDS011;18379;48.208;-1.518;2023-02-28T23:35:04;56.17;;;43.40;;
31808;SDS011;18379;48.208;-1.518;2023-02-28T23:40:07;64.67;;;46.97;;
31808;SDS011;18379;48.208;-1.518;2023-02-28T23:45:10;62.23;;;45.80;;
31808;SDS011;18379;48.208;-1.518;2023-02-28T23:50:11;63.27;;;46.73;;
31808;SDS011;18379;48.208;-1.518;2023-02-28T23:55:12;60.50;;;46.50;;
